Time;durP1;ratioP1;P1;durP2;ratioP2;P2;SDS_P1;SDS_P2;PMS_P1;PMS_P2;Temp;Humidity;BMP_temperature;BMP_pressure;BME280_temperature;BME280_humidity;BME280_pressure;Samples;Min_cycle;Max_cycle;Signal;HPM_P1;HPM_P2
2022/01/26 00:10:49;;;;;;;5.27;4.20;;;;;;;18.06;41.95;101939.72;10285636;27;44234;-69
2022/01/26 00:15:41;;;;;;;8.45;4.35;;;;;;;18.29;41.60;101941.31;10282153;27;66165;-67
2022/01/26 00:20:39;;;;;;;9.55;4.35;;;;;;;18.34;41.46;101927.59;10274433;27;65579;-66
2022/01/26 00:25:42;;;;;;;4.80;4.28;;;;;;;18.42;41.13;101933.44;10254383;27;66434;-68
2022/01/26 00:41:03;;;;;;;5.10;4.05;;;;;;;18.43;41.15;101937.84;10284350;27;67305;-67
2022/01/26 00:45:58;;;;;;;5.95;4.35;;;;;;;18.43;41.15;101939.78;10280944;27;66405;-68
2022/01/26 00:50:52;;;;;;;6.90;4.30;;;;;;;18.38;41.18;101936.97;10276467;27;65578;-68
2022/01/26 00:55:44;;;;;;;5.95;4.03;;;;;;;18.41;40.98;101944.69;10276905;27;66387;-70
2022/01/26 09:19:23;;;;;;;4.07;2.40;;;;;;;17.37;42.23;101931.22;10221342;27;43029;-77
2022/01/26 09:24:15;;;;;;;8.50;2.40;;;;;;;17.67;41.78;101953.56;10174246;27;66139;-74
2022/01/26 09:29:08;;;;;;;3.05;2.15;;;;;;;17.75;41.41;101955.00;10149914;27;66352;-71
2022/01/26 09:34:03;;;;;;;4.32;2.45;;;;;;;17.66;41.37;101957.38;10139551;27;65519;-72
2022/01/26 09:38:56;;;;;;;4.83;2.47;;;;;;;17.73;41.08;101963.50;10138110;27;66515;-71
2022/01/26 09:43:48;;;;;;;3.47;2.30;;;;;;;17.67;41.07;101950.81;10153510;27;63459;-70
2022/01/26 09:48:42;;;;;;;3.05;2.10;;;;;;;17.67;41.02;101959.03;10140969;27;66372;-71
2022/01/26 09:53:35;;;;;;;4.80;2.40;;;;;;;17.90;40.77;101952.44;10148004;27;66392;-77
2022/01/26 09:58:32;;;;;;;6.07;2.17;;;;;;;18.10;40.49;101969.13;10146788;27;66378;-73
2022/01/26 10:03:25;;;;;;;2.83;1.98;;;;;;;17.94;40.60;101952.75;10145767;27;65399;-73
2022/01/26 10:08:28;;;;;;;3.67;2.00;;;;;;;17.87;40.72;101980.38;10118570;27;66411;-72
2022/01/26 10:18:40;;;;;;;3.70;2.03;;;;;;;17.93;40.72;101954.69;10138046;27;67320;-76
2022/01/26 10:23:36;;;;;;;5.40;2.00;;;;;;;17.91;40.75;101950.53;10143815;27;66456;-76
2022/01/26 10:28:28;;;;;;;4.38;1.85;;;;;;;17.98;40.68;101960.22;10128125;27;65064;-76
2022/01/26 10:33:22;;;;;;;5.32;2.15;;;;;;;18.01;40.43;101951.44;10126976;28;65615;-77
2022/01/26 10:38:14;;;;;;;2.83;1.80;;;;;;;18.00;40.50;101952.56;10155202;28;66262;-75
2022/01/26 10:43:10;;;;;;;2.47;1.95;;;;;;;17.96;40.49;101951.41;10135331;28;65428;-75
2022/01/26 10:48:14;;;;;;;2.33;1.92;;;;;;;17.95;40.56;101948.91;10156874;28;66293;-76
2022/01/26 10:53:09;;;;;;;5.43;1.80;;;;;;;17.99;40.46;101939.91;10131285;28;66257;-76
2022/01/26 10:58:01;;;;;;;7.22;2.20;;;;;;;18.01;40.38;101945.97;10145875;28;65652;-76
2022/01/26 11:02:57;;;;;;;10.43;2.97;;;;;;;17.80;40.58;101939.44;10132331;28;66500;-76
2022/01/26 11:07:49;;;;;;;23.95;4.32;;;;;;;17.82;39.23;101944.66;10149424;27;65366;-77
2022/01/26 11:12:43;;;;;;;15.32;3.88;;;;;;;17.88;39.36;101948.28;10148091;28;66360;-78
2022/01/26 11:17:37;;;;;;;13.20;3.35;;;;;;;17.84;39.55;101945.25;10154509;27;66304;-76
2022/01/26 11:22:31;;;;;;;9.65;3.00;;;;;;;17.89;39.61;101944.47;10168638;27;66181;-77
2022/01/26 11:27:34;;;;;;;13.48;3.15;;;;;;;17.92;39.71;101941.22;10156449;27;66632;-78
2022/01/26 11:32:31;;;;;;;14.10;3.20;;;;;;;17.88;39.77;101924.44;10151589;27;66414;-77
2022/01/26 11:37:28;;;;;;;10.43;3.17;;;;;;;17.89;39.90;101922.50;10152639;27;66365;-77
2022/01/26 11:47:39;;;;;;;11.63;3.80;;;;;;;17.90;39.84;101940.63;10145716;27;66122;-77
2022/01/26 11:52:35;;;;;;;10.30;3.00;;;;;;;17.87;39.98;101946.63;10101841;28;66393;-77
2022/01/26 11:57:37;;;;;;;7.20;3.08;;;;;;;17.89;39.91;101944.47;10146088;28;65679;-77
2022/01/26 12:02:43;;;;;;;8.27;3.50;;;;;;;17.87;39.97;101936.47;10128433;28;65944;-77
2022/01/26 12:07:46;;;;;;;9.93;3.03;;;;;;;17.85;40.07;101938.69;10097825;28;65581;-77
2022/01/26 12:12:39;;;;;;;9.35;3.40;;;;;;;17.84;40.13;101951.56;10145522;28;66310;-77
2022/01/26 12:17:35;;;;;;;17.08;3.88;;;;;;;17.83;40.23;101927.97;10160471;27;66436;-76
2022/01/26 12:33:09;;;;;;;9.32;3.67;;;;;;;17.89;40.17;101952.69;10137999;28;66355;-77
2022/01/26 12:38:06;;;;;;;10.30;3.50;;;;;;;17.86;40.13;101950.47;10140782;27;65719;-75
2022/01/26 12:43:06;;;;;;;8.25;3.13;;;;;;;17.90;40.34;101957.09;10127588;28;64923;-77
2022/01/26 12:47:58;;;;;;;12.90;3.33;;;;;;;18.06;40.14;101950.69;10128480;28;65667;-76
2022/01/26 12:52:50;;;;;;;8.88;3.72;;;;;;;18.31;39.99;101944.59;10140972;28;65505;-75
2022/01/26 12:57:43;;;;;;;10.10;3.60;;;;;;;18.30;40.04;101938.31;10141106;28;66399;-77
2022/01/26 13:02:37;;;;;;;13.10;3.75;;;;;;;18.32;40.04;101944.34;10153187;28;66862;-75
2022/01/26 13:07:29;;;;;;;14.55;4.10;;;;;;;18.22;40.25;101947.84;10129025;28;65538;-76
2022/01/26 13:12:28;;;;;;;11.30;3.55;;;;;;;18.05;40.44;101949.84;10142709;28;65468;-77
2022/01/26 13:17:33;;;;;;;5.88;3.10;;;;;;;17.97;40.34;101949.50;10133838;27;66169;-76
2022/01/26 13:22:49;;;;;;;9.18;3.80;;;;;;;18.02;40.36;101955.84;10136141;28;65616;-76
2022/01/26 13:28:20;;;;;;;9.23;4.13;;;;;;;18.01;40.04;101956.94;10135816;28;66343;-77
2022/01/26 13:38:32;;;;;;;7.78;3.97;;;;;;;17.91;40.17;101923.09;10128474;28;66974;-77
2022/01/26 13:48:55;;;;;;;8.52;3.55;;;;;;;17.94;40.12;101926.13;10117786;28;66949;-77
2022/01/26 13:53:52;;;;;;;7.43;3.72;;;;;;;17.88;40.20;101913.44;10155024;28;66850;-79
2022/01/26 13:58:57;;;;;;;8.75;3.67;;;;;;;17.90;40.27;101903.06;10139634;27;65584;-76
2022/01/26 14:03:50;;;;;;;6.28;3.88;;;;;;;17.92;40.14;101892.66;10144730;28;65670;-76
2022/01/26 14:08:42;;;;;;;5.80;3.35;;;;;;;17.91;40.23;101901.97;10150819;28;66452;-77
2022/01/26 14:13:37;;;;;;;6.25;3.30;;;;;;;17.90;40.23;101897.56;10149216;28;66403;-77
2022/01/26 14:29:12;;;;;;;6.80;3.97;;;;;;;17.87;40.47;101891.75;10120049;28;67145;-77
2022/01/26 14:39:41;;;;;;;8.98;3.75;;;;;;;17.97;41.27;101887.22;10126391;28;66981;-76
2022/01/26 14:55:25;;;;;;;6.97;3.60;;;;;;;17.91;41.12;101862.72;10131371;28;67324;-77
2022/01/26 15:00:46;;;;;;;8.70;4.35;;;;;;;18.00;40.98;101861.16;10130484;28;66842;-78
2022/01/26 15:42:31;;;;;;;13.25;9.25;;;;;;;17.51;36.85;101857.63;10096483;28;67289;-69
2022/01/26 16:08:14;;;;;;;12.65;6.80;;;;;;;18.14;37.76;101903.56;10105390;28;67283;-70
2022/01/26 16:39:04;;;;;;;8.77;6.20;;;;;;;18.54;38.26;101895.63;10124868;28;67296;-70
2022/01/26 18:13:02;;;;;;;5.70;4.82;;;;;;;18.40;38.61;101866.13;10140145;28;67260;-72
2022/01/26 18:17:48;;;;;;;7.00;5.20;;;;;;;18.40;38.69;101869.72;10144769;28;67018;-72
2022/01/26 18:33:07;;;;;;;6.63;4.43;;;;;;;18.37;38.75;101858.44;10099623;28;67235;-72
2022/01/26 18:53:27;;;;;;;6.22;4.72;;;;;;;18.27;39.01;101892.13;10131376;28;66377;-71
2022/01/26 18:58:19;;;;;;;7.38;4.63;;;;;;;18.26;38.97;101889.66;10139656;28;66481;-71
2022/01/26 19:03:11;;;;;;;6.45;4.90;;;;;;;18.29;39.23;101889.13;10142485;28;66365;-72
2022/01/26 19:08:03;;;;;;;8.38;4.53;;;;;;;18.29;39.79;101889.13;10129427;28;66351;-72
2022/01/26 19:12:56;;;;;;;7.38;4.57;;;;;;;18.30;39.66;101883.38;10166375;28;65375;-72
2022/01/26 19:17:53;;;;;;;7.50;4.70;;;;;;;18.33;39.62;101865.53;10146011;27;65687;-72
2022/01/26 19:23:05;;;;;;;6.10;4.53;;;;;;;18.33;39.85;101852.63;10148168;28;66439;-72
2022/01/26 19:28:07;;;;;;;11.27;5.07;;;;;;;18.38;39.94;101854.59;10167429;28;65484;-72
2022/01/26 19:33:18;;;;;;;7.50;4.35;;;;;;;18.38;39.98;101841.69;10143532;28;66013;-72
2022/01/26 19:53:49;;;;;;;6.80;4.50;;;;;;;18.41;40.03;101835.69;10148864;28;67296;-72
2022/01/26 19:58:42;;;;;;;6.07;4.05;;;;;;;18.41;39.89;101843.91;10130668;28;65590;-71
2022/01/26 20:03:35;;;;;;;5.55;4.60;;;;;;;18.42;40.01;101842.81;10151365;28;66393;-71
2022/01/26 20:08:38;;;;;;;6.50;4.63;;;;;;;18.47;39.94;101853.84;10124159;28;66432;-72
2022/01/26 20:13:32;;;;;;;10.05;4.40;;;;;;;18.46;39.77;101843.94;10137206;28;65519;-72
2022/01/26 20:18:26;;;;;;;5.45;3.80;;;;;;;18.47;39.88;101848.34;10140846;27;66369;-72
2022/01/26 20:23:18;;;;;;;5.05;3.80;;;;;;;18.43;40.04;101836.25;10144078;28;66151;-70
2022/01/26 20:28:12;;;;;;;4.88;3.97;;;;;;;18.62;39.78;101844.91;10127375;28;66830;-71
2022/01/26 20:33:04;;;;;;;6.40;4.00;;;;;;;18.69;39.51;101850.97;10141036;28;66650;-70
2022/01/26 20:37:57;;;;;;;5.90;4.05;;;;;;;18.67;39.40;101839.44;10129346;28;65570;-71
2022/01/26 20:42:49;;;;;;;6.20;3.85;;;;;;;18.64;39.24;101833.66;10142938;28;66396;-71
